Terminal Aerodrome Forecast
Issued by NWS

Home | Current Version | Previous Version | Text Only | Print | Product List | Glossary On
Versions: 1 2 3 4 5 6 7 8 9 10 11 12 13 14 15
917
FTUS43 KSGF 101125
TAFBBG
TAF
KBBG 101125Z 1012/1112 28005KT P6SM SCT100
     FM101400 22008KT P6SM BKN100
     FM101900 22010G17KT P6SM SCT100
     FM110000 23005KT P6SM SCT120=

USA.gov is the U.S. government's official web portal to all federal, state and local government web resources and services.